Terminal Aerodrome Forecast
Issued by NWS

Home | Current Version | Previous Version | Text Only | Print | Product List | Glossary On
Versions: 1 2 3 4 5 6 7 8 9 10 11 12 13 14
000
FTUS44 KBMX 251700
TAFTOI
TAF
KTOI 251739Z 2518/2618 21013KT P6SM SKC
     FM252300 22010KT P6SM SCT120
     FM260400 26008KT P6SM OVC100
     FM260700 28008KT P6SM OVC050
     FM260900 30010KT P6SM OVC025=

USA.gov is the U.S. government's official web portal to all federal, state and local government web resources and services.